Verona / Villafranca Airport LIPX

Flugplatz Daten

Name: Verona / Villafranca Airport

Ident: LIPX

Lat: 45,39569855

Long: 10,88850021

Platzhöhe: 239 ft

IataCode: VRN

City: Verona

Homepage: http://www.aeroportoverona.it/

Metar

2022/08/13 18:20
LIPX 131820Z 22003KT CAVOK 26/13 Q1012

Taf

2022/08/13 18:22
TAF LIPX 131700Z 1318/1418 VRB05KT CAVOK
BECMG 1410/1412 21010KT
Gewünschte Webcam nicht vorhanden? Dann fügen Sie eine hinzu. Sie wird dann so schnell wie möglich freigeschaltet
Url: Title: